KHOP/HOP METAR and TAF weather

Enter ICAO airport designator
Station Type Date Time Source
KHOP METAR 2022/01/26 20:56 UTC NOAA

KHOP 262056Z AUTO 33004KT 10SM CLR M02/M18 A3040 RMK AO2 SLP305 T10201181 56026


Station Type Date Time Source
KHOP Decoded METAR 2022/01/26 20:56 UTC NOAA

Fort Campbell U. S. Army Airfield, KY, United States (KHOP) 36-40N 087-30W 174M
Jan 26, 2022 - 03:56 PM EST / 2022.01.26 2056 UTC
Wind: from the NNW (330 degrees) at 5 MPH (4 KT):0
Visibility: 10 mile(s):0
Sky conditions: clear
Temperature: 28.4 F (-2.0 C)
Windchill: 23 F (-5 C):1
Dew Point: -0.6 F (-18.1 C)
Relative Humidity: 27%
Pressure (altimeter): 30.4 in. Hg (1029 hPa)
Pressure tendency: 0.08 inches (2.6 hPa) lower than three hours ago
ob: KHOP 262056Z AUTO 33004KT 10SM CLR M02/M18 A3040 RMK AO2 SLP305 T10201181 56026
cycle: 21

Station Type Date Time Source
KHOP TAF 2022/01/26 16:38 UTC NOAA

TAF KHOP 261600Z 2616/2722 VRB06KT 9999 SKC QNH3034INS
BECMG 2707/2708 VRB06KT 9999 SCT050 OVC070 620505 QNH3023INS TX00/2716Z TNM07/2703Z

Example: see airport list